Time;durP1;ratioP1;P1;durP2;ratioP2;P2;SDS_P1;SDS_P2;PMS_P1;PMS_P2;Temp;Humidity;BMP_temperature;BMP_pressure;BME280_temperature;BME280_humidity;BME280_pressure;Samples;Min_cycle;Max_cycle;Signal;HPM_P1;HPM_P2
2024/03/06 00:02:22;;;;;;;0.60;0.60;;;4.60;99.90;;;;;;5081439;28;20547;-81
2024/03/06 00:04:49;;;;;;;0.50;0.40;;;4.70;99.90;;;;;;5080645;28;20714;-82
2024/03/06 00:07:17;;;;;;;0.50;0.40;;;4.70;99.90;;;;;;5081040;28;20225;-81
2024/03/06 00:09:44;;;;;;;0.95;0.95;;;4.70;99.90;;;;;;5081014;28;20194;-81
2024/03/06 00:12:11;;;;;;;1.23;0.82;;;4.60;99.90;;;;;;5081201;28;20203;-80
2024/03/06 00:14:38;;;;;;;1.67;1.60;;;4.70;99.90;;;;;;5085021;28;20226;-81
2024/03/06 00:17:06;;;;;;;0.50;0.40;;;4.70;99.90;;;;;;5085523;28;20214;-81
2024/03/06 00:19:33;;;;;;;0.50;0.40;;;4.70;99.90;;;;;;5085143;28;20197;-81
2024/03/06 00:22:02;;;;;;;0.57;0.57;;;4.60;99.90;;;;;;5085637;28;20202;-81
2024/03/06 00:24:29;;;;;;;0.50;0.40;;;4.60;99.90;;;;;;5085228;28;20210;-81
2024/03/06 00:26:56;;;;;;;0.50;0.40;;;4.70;99.90;;;;;;5085501;28;20202;-80
2024/03/06 00:29:23;;;;;;;0.60;0.60;;;4.70;99.90;;;;;;5085769;28;20190;-80
2024/03/06 00:31:50;;;;;;;4.30;1.50;;;4.70;99.90;;;;;;5085759;28;20201;-82
2024/03/06 00:34:18;;;;;;;0.50;0.43;;;4.60;99.90;;;;;;5090603;28;20777;-79
2024/03/06 00:36:45;;;;;;;0.50;0.40;;;4.60;99.90;;;;;;5091908;28;20213;-79
2024/03/06 00:39:14;;;;;;;0.50;0.40;;;4.50;99.90;;;;;;5089449;28;20190;-78
2024/03/06 00:41:41;;;;;;;0.50;0.40;;;4.50;99.90;;;;;;5087574;28;20202;-79
2024/03/06 00:44:08;;;;;;;0.50;0.40;;;4.50;99.90;;;;;;5078347;28;20549;-80
2024/03/06 00:46:35;;;;;;;0.70;0.70;;;4.50;99.90;;;;;;5073867;28;20199;-80
2024/03/06 00:49:02;;;;;;;0.50;0.40;;;4.40;99.90;;;;;;5074959;28;20261;-80
2024/03/06 00:51:30;;;;;;;0.70;0.68;;;4.40;99.90;;;;;;5074806;28;20198;-80
2024/03/06 00:53:58;;;;;;;1.00;1.00;;;4.40;99.90;;;;;;5074833;28;20194;-81
2024/03/06 00:56:25;;;;;;;0.50;0.50;;;4.40;99.90;;;;;;5075188;28;20218;-79
2024/03/06 00:58:52;;;;;;;0.50;0.40;;;4.40;99.90;;;;;;5077541;28;20336;-80
2024/03/06 01:01:18;;;;;;;0.50;0.40;;;4.30;99.90;;;;;;5074980;28;20569;-80
2024/03/06 01:03:47;;;;;;;0.50;0.40;;;4.20;99.90;;;;;;5073971;28;20190;-79
2024/03/06 01:06:14;;;;;;;0.50;0.40;;;4.20;99.90;;;;;;5074620;28;20711;-80
2024/03/06 01:08:42;;;;;;;0.50;0.50;;;4.10;99.90;;;;;;5077349;28;20218;-81
2024/03/06 01:11:14;;;;;;;0.50;0.40;;;4.10;99.90;;;;;;5081890;28;20195;-80
2024/03/06 01:13:41;;;;;;;0.50;0.40;;;4.10;99.90;;;;;;5081073;28;20592;-80
2024/03/06 01:16:08;;;;;;;0.50;0.40;;;4.00;99.90;;;;;;5081566;28;20201;-81
2024/03/06 01:18:36;;;;;;;0.50;0.40;;;4.00;99.90;;;;;;5081280;28;20218;-80
2024/03/06 01:21:04;;;;;;;0.50;0.40;;;4.00;99.90;;;;;;5080923;28;20205;-82
2024/03/06 01:23:31;;;;;;;1.67;1.58;;;4.00;99.90;;;;;;5081389;28;20194;-81
2024/03/06 01:26:00;;;;;;;3.88;2.65;;;4.00;99.90;;;;;;5079477;28;20214;-80
2024/03/06 01:28:27;;;;;;;3.25;3.10;;;4.00;99.90;;;;;;5081259;28;20227;-82
2024/03/06 01:30:54;;;;;;;2.05;1.95;;;4.00;99.90;;;;;;5080947;28;20194;-81
2024/03/06 01:33:21;;;;;;;0.60;0.50;;;4.00;99.90;;;;;;5080126;28;20213;-82
2024/03/06 01:35:48;;;;;;;13.73;1.70;;;4.00;99.90;;;;;;5080512;28;20264;-80
2024/03/06 01:38:17;;;;;;;2.35;2.25;;;3.90;99.90;;;;;;5080378;28;20246;-80
2024/03/06 01:40:46;;;;;;;0.50;0.50;;;4.00;99.90;;;;;;5080780;28;20205;-80
2024/03/06 01:43:22;;;;;;;1.08;0.98;;;4.00;99.90;;;;;;5080315;28;20672;-81
2024/03/06 01:45:49;;;;;;;0.70;0.70;;;4.10;99.90;;;;;;5079300;28;20252;-81
2024/03/06 01:48:17;;;;;;;0.70;0.70;;;4.10;99.90;;;;;;5080178;28;20731;-81
2024/03/06 01:50:46;;;;;;;0.50;0.40;;;4.10;99.90;;;;;;5081528;28;20673;-80
2024/03/06 01:53:14;;;;;;;0.50;0.40;;;4.10;99.90;;;;;;5080623;28;20194;-81
2024/03/06 01:55:41;;;;;;;0.50;0.40;;;4.10;99.90;;;;;;5080631;28;20186;-80
2024/03/06 01:58:08;;;;;;;0.50;0.40;;;4.10;99.90;;;;;;5079950;28;20219;-80
2024/03/06 02:00:37;;;;;;;24.50;23.08;;;4.00;99.90;;;;;;5078809;28;20205;-81
2024/03/06 02:03:05;;;;;;;0.50;0.40;;;3.90;99.90;;;;;;5080042;28;20194;-81
2024/03/06 02:05:35;;;;;;;0.50;0.40;;;3.90;99.90;;;;;;5079705;28;20218;-82
2024/03/06 02:08:02;;;;;;;0.50;0.40;;;3.80;99.90;;;;;;5080185;28;20217;-81
2024/03/06 02:10:30;;;;;;;0.50;0.40;;;3.80;99.90;;;;;;5080080;28;20190;-80
2024/03/06 02:12:57;;;;;;;0.50;0.40;;;3.80;99.90;;;;;;5080446;28;20202;-81
2024/03/06 02:15:26;;;;;;;0.50;0.40;;;3.70;99.90;;;;;;5080104;28;20190;-80
2024/03/06 02:17:55;;;;;;;0.70;0.70;;;3.70;99.90;;;;;;5079211;28;20727;-80
2024/03/06 02:20:24;;;;;;;0.50;0.50;;;3.60;99.90;;;;;;5079458;28;20194;-81
2024/03/06 02:22:52;;;;;;;0.70;0.70;;;3.60;99.90;;;;;;5078955;28;20198;-80
2024/03/06 02:25:20;;;;;;;0.50;0.40;;;3.60;99.90;;;;;;5079844;28;20218;-81
2024/03/06 02:27:48;;;;;;;0.50;0.50;;;3.60;99.90;;;;;;5079714;28;20210;-80
2024/03/06 02:30:15;;;;;;;0.50;0.40;;;3.50;99.90;;;;;;5079793;28;20202;-80
2024/03/06 02:32:43;;;;;;;0.50;0.40;;;3.50;99.90;;;;;;5079143;28;20237;-81
2024/03/06 02:35:11;;;;;;;0.50;0.40;;;3.40;99.90;;;;;;5078453;28;20195;-81
2024/03/06 02:37:39;;;;;;;0.50;0.40;;;3.40;99.90;;;;;;5078668;28;20217;-79
2024/03/06 02:40:09;;;;;;;5.60;3.63;;;3.30;99.90;;;;;;5080167;28;20198;-80
2024/03/06 02:42:38;;;;;;;2.50;1.05;;;3.30;99.90;;;;;;5079627;28;20202;-79
2024/03/06 02:45:07;;;;;;;23.35;5.25;;;3.40;99.90;;;;;;5078138;28;20217;-80
2024/03/06 02:47:33;;;;;;;3.40;3.28;;;3.50;99.90;;;;;;5079631;28;20218;-81
2024/03/06 02:50:00;;;;;;;0.75;0.75;;;3.50;99.90;;;;;;5082107;28;20207;-79
2024/03/06 02:52:27;;;;;;;0.50;0.50;;;3.50;99.90;;;;;;5084312;28;20194;-78
2024/03/06 02:54:55;;;;;;;0.50;0.40;;;3.50;99.90;;;;;;5085449;28;20191;-78
2024/03/06 02:57:22;;;;;;;0.50;0.50;;;3.50;99.90;;;;;;5085485;28;20211;-78
2024/03/06 02:59:49;;;;;;;0.50;0.40;;;3.50;99.90;;;;;;5085369;28;20198;-78
2024/03/06 03:02:19;;;;;;;0.50;0.40;;;3.50;99.90;;;;;;5086953;28;20194;-79
2024/03/06 03:04:46;;;;;;;0.80;0.80;;;3.50;99.90;;;;;;5086895;28;20205;-78
2024/03/06 03:07:13;;;;;;;0.50;0.40;;;3.60;99.90;;;;;;5085425;28;20210;-81
2024/03/06 03:09:39;;;;;;;0.95;0.95;;;3.70;99.90;;;;;;5083094;28;20244;-82
2024/03/06 03:12:08;;;;;;;0.70;0.70;;;3.80;99.90;;;;;;5083310;28;20206;-82
2024/03/06 03:14:34;;;;;;;0.50;0.40;;;3.90;99.90;;;;;;5083065;28;20661;-82
2024/03/06 03:17:05;;;;;;;0.50;0.40;;;4.00;99.90;;;;;;5083323;28;20197;-82
2024/03/06 03:19:32;;;;;;;0.50;0.40;;;4.10;99.90;;;;;;5081976;28;20289;-82
2024/03/06 03:21:59;;;;;;;0.50;0.40;;;4.20;99.90;;;;;;5083146;28;20202;-80
2024/03/06 03:24:26;;;;;;;1.42;1.40;;;4.30;99.90;;;;;;5081967;28;20217;-82
2024/03/06 03:26:54;;;;;;;0.50;0.40;;;4.40;99.90;;;;;;5081650;28;20623;-81
2024/03/06 03:29:23;;;;;;;0.50;0.40;;;4.40;99.90;;;;;;5082647;28;20640;-82
2024/03/06 03:31:50;;;;;;;0.70;0.70;;;4.50;99.90;;;;;;5082922;28;20196;-82
2024/03/06 03:34:16;;;;;;;0.50;0.40;;;4.60;99.90;;;;;;5082130;28;20194;-82
2024/03/06 03:36:44;;;;;;;0.50;0.50;;;4.60;99.90;;;;;;5082168;28;20194;-82
2024/03/06 03:39:16;;;;;;;6.68;1.45;;;4.60;99.90;;;;;;5082616;28;20198;-81
2024/03/06 03:41:45;;;;;;;0.50;0.40;;;4.70;99.90;;;;;;5082240;28;20206;-82
2024/03/06 03:44:12;;;;;;;0.50;0.40;;;4.70;99.90;;;;;;5081873;28;20191;-82
2024/03/06 03:46:40;;;;;;;1.98;1.10;;;4.70;99.90;;;;;;5081015;28;20237;-80
2024/03/06 03:49:09;;;;;;;2.35;1.60;;;4.70;99.90;;;;;;5084882;28;20190;-82
2024/03/06 03:51:37;;;;;;;0.50;0.40;;;4.60;99.90;;;;;;5086325;28;20201;-82
2024/03/06 03:54:04;;;;;;;2.00;1.80;;;4.50;99.90;;;;;;5085429;28;20198;-82
2024/03/06 03:56:31;;;;;;;0.50;0.40;;;4.40;99.90;;;;;;5085118;28;20198;-82
2024/03/06 03:58:58;;;;;;;0.50;0.40;;;4.40;99.90;;;;;;5085524;28;20268;-82
2024/03/06 04:01:26;;;;;;;2.58;1.98;;;4.30;99.90;;;;;;5085002;28;20203;-82
2024/03/06 04:03:54;;;;;;;0.95;0.95;;;4.30;99.90;;;;;;5085645;28;20205;-82
2024/03/06 04:06:21;;;;;;;7.88;4.30;;;4.20;99.90;;;;;;5085201;28;20214;-82
2024/03/06 04:08:48;;;;;;;0.50;0.40;;;4.20;99.90;;;;;;5084180;28;20597;-81
2024/03/06 04:11:15;;;;;;;2.58;2.15;;;4.20;99.90;;;;;;5085658;28;20257;-79
2024/03/06 04:13:41;;;;;;;3.75;3.53;;;4.10;99.90;;;;;;5085317;28;20195;-80
2024/03/06 04:16:08;;;;;;;1.38;1.38;;;4.10;99.90;;;;;;5084481;28;20209;-82
2024/03/06 04:18:35;;;;;;;3.25;2.15;;;4.00;99.90;;;;;;5084368;28;20225;-81
2024/03/06 04:21:05;;;;;;;2.83;1.85;;;3.90;99.90;;;;;;5084546;28;20209;-83
2024/03/06 04:23:32;;;;;;;0.50;0.40;;;3.90;99.90;;;;;;5083950;28;20194;-81
2024/03/06 04:25:59;;;;;;;4.20;4.00;;;4.00;99.90;;;;;;5083490;28;20214;-81
2024/03/06 04:28:26;;;;;;;0.50;0.50;;;3.90;99.90;;;;;;5079296;28;20214;-80
2024/03/06 04:30:54;;;;;;;0.50;0.40;;;3.80;99.90;;;;;;5077642;28;20194;-80
2024/03/06 04:33:21;;;;;;;11.73;2.55;;;3.70;99.90;;;;;;5076457;28;20285;-79
2024/03/06 04:35:48;;;;;;;0.70;0.70;;;3.70;99.90;;;;;;5074957;28;20198;-80
2024/03/06 04:38:16;;;;;;;4.65;1.90;;;3.60;99.90;;;;;;5076092;28;20221;-80
2024/03/06 04:40:44;;;;;;;0.50;0.40;;;3.60;99.90;;;;;;5075865;28;20206;-79
2024/03/06 04:43:11;;;;;;;0.50;0.40;;;3.60;99.90;;;;;;5075855;28;20190;-80
2024/03/06 04:45:38;;;;;;;0.50;0.43;;;3.50;99.90;;;;;;5075619;28;20218;-79
2024/03/06 04:48:06;;;;;;;0.60;0.60;;;3.50;99.90;;;;;;5075470;28;20787;-79
2024/03/06 04:50:33;;;;;;;0.50;0.50;;;3.50;99.90;;;;;;5075642;28;20289;-80
2024/03/06 04:53:00;;;;;;;0.50;0.40;;;3.50;99.90;;;;;;5075277;28;20195;-80
2024/03/06 04:55:28;;;;;;;0.50;0.50;;;3.50;99.90;;;;;;5075079;28;20194;-80
2024/03/06 04:57:55;;;;;;;0.50;0.40;;;3.50;99.90;;;;;;5075485;28;20309;-80
2024/03/06 05:00:22;;;;;;;0.93;0.93;;;3.50;99.90;;;;;;5073758;28;20194;-81
2024/03/06 05:02:50;;;;;;;0.50;0.40;;;3.50;99.90;;;;;;5074684;28;20205;-80
2024/03/06 05:05:17;;;;;;;0.50;0.50;;;3.50;99.90;;;;;;5074589;28;20195;-80
2024/03/06 05:07:44;;;;;;;0.50;0.50;;;3.50;99.90;;;;;;5073441;28;20264;-81
2024/03/06 05:10:11;;;;;;;0.50;0.40;;;3.40;99.90;;;;;;5074475;28;20217;-81
2024/03/06 05:12:40;;;;;;;0.50;0.50;;;3.40;99.90;;;;;;5089831;28;20179;-80
2024/03/06 05:15:08;;;;;;;0.50;0.40;;;3.30;99.90;;;;;;5099312;28;20197;-80
2024/03/06 05:17:35;;;;;;;0.60;0.60;;;3.20;99.90;;;;;;5099506;28;20216;-79
2024/03/06 05:20:03;;;;;;;0.50;0.40;;;3.20;99.90;;;;;;5088772;28;20198;-81
2024/03/06 05:22:30;;;;;;;0.50;0.40;;;3.20;99.90;;;;;;5084517;28;20225;-80
2024/03/06 05:24:58;;;;;;;0.70;0.70;;;3.10;99.90;;;;;;5080150;28;20198;-81
2024/03/06 05:27:25;;;;;;;0.82;0.82;;;3.10;99.90;;;;;;5078471;28;20222;-82
2024/03/06 05:29:53;;;;;;;11.63;2.25;;;3.10;99.90;;;;;;5063034;28;20194;-81
2024/03/06 05:32:20;;;;;;;2.15;1.48;;;3.10;99.90;;;;;;5071088;28;20203;-80
2024/03/06 05:34:46;;;;;;;0.65;0.65;;;3.10;99.90;;;;;;5079974;28;20190;-81
2024/03/06 05:37:13;;;;;;;4.65;3.80;;;3.00;99.90;;;;;;5078464;28;20210;-82
2024/03/06 05:39:42;;;;;;;1.83;1.30;;;3.00;99.90;;;;;;5075416;28;20206;-81
2024/03/06 05:42:09;;;;;;;0.60;0.40;;;3.10;99.90;;;;;;5080363;28;20221;-79
2024/03/06 05:44:36;;;;;;;0.50;0.40;;;3.00;99.90;;;;;;5079318;28;20198;-80
2024/03/06 05:47:04;;;;;;;0.50;0.40;;;3.00;99.90;;;;;;5080543;28;20225;-82
2024/03/06 05:49:32;;;;;;;0.50;0.40;;;3.00;99.90;;;;;;5080601;28;20319;-81
2024/03/06 05:51:59;;;;;;;2.65;2.55;;;3.00;99.90;;;;;;5080204;28;20199;-82
2024/03/06 05:54:25;;;;;;;0.50;0.50;;;3.10;99.90;;;;;;5079754;28;20201;-82
2024/03/06 05:56:53;;;;;;;0.50;0.50;;;3.10;99.90;;;;;;5079869;28;20194;-80
2024/03/06 05:59:20;;;;;;;0.63;0.63;;;3.20;99.90;;;;;;5080420;28;20237;-81
2024/03/06 06:01:47;;;;;;;0.50;0.40;;;3.30;99.90;;;;;;5080986;28;20198;-82
2024/03/06 06:04:15;;;;;;;0.50;0.40;;;3.30;99.90;;;;;;5083318;28;20198;-82
2024/03/06 06:06:42;;;;;;;0.50;0.40;;;3.30;99.90;;;;;;5083596;28;20221;-80
2024/03/06 06:09:13;;;;;;;0.50;0.40;;;3.40;99.90;;;;;;5082846;28;20202;-82
2024/03/06 06:11:40;;;;;;;1.40;1.20;;;3.40;99.90;;;;;;5082883;28;20401;-83
2024/03/06 06:14:08;;;;;;;0.50;0.40;;;3.50;99.90;;;;;;5083522;28;20198;-82
2024/03/06 06:16:38;;;;;;;0.50;0.40;;;3.40;99.90;;;;;;5084931;28;20197;-81
2024/03/06 06:19:05;;;;;;;0.50;0.50;;;3.50;99.90;;;;;;5083509;28;20649;-83
2024/03/06 06:21:35;;;;;;;1.50;1.40;;;3.50;99.90;;;;;;5082835;28;20228;-83
2024/03/06 06:24:02;;;;;;;0.50;0.40;;;3.40;99.90;;;;;;5081615;28;20257;-81
2024/03/06 06:26:29;;;;;;;0.50;0.40;;;3.40;99.90;;;;;;5082845;28;20214;-82
2024/03/06 06:28:55;;;;;;;0.50;0.40;;;3.40;99.90;;;;;;5082481;28;20218;-84
2024/03/06 06:31:22;;;;;;;0.50;0.50;;;3.50;99.90;;;;;;5083952;28;20202;-82
2024/03/06 06:33:49;;;;;;;0.50;0.50;;;3.60;99.90;;;;;;5083885;28;20633;-83
2024/03/06 06:36:16;;;;;;;0.98;0.98;;;3.70;99.90;;;;;;5084131;28;20190;-83
2024/03/06 06:38:44;;;;;;;0.50;0.40;;;3.70;99.90;;;;;;5083478;28;20225;-82
2024/03/06 06:41:11;;;;;;;0.52;0.50;;;3.80;99.90;;;;;;5081476;28;20619;-82
2024/03/06 06:43:37;;;;;;;0.50;0.40;;;4.00;99.90;;;;;;5060983;28;20202;-82
2024/03/06 06:46:06;;;;;;;0.50;0.40;;;4.10;99.90;;;;;;5062213;28;20206;-82
2024/03/06 06:48:33;;;;;;;1.15;1.05;;;4.20;99.90;;;;;;5063014;28;20624;-80
2024/03/06 06:51:01;;;;;;;0.50;0.40;;;4.20;99.90;;;;;;5061461;28;20213;-81
2024/03/06 06:53:27;;;;;;;0.50;0.40;;;4.30;99.90;;;;;;5060742;28;20666;-82
2024/03/06 06:55:56;;;;;;;0.50;0.40;;;4.40;99.90;;;;;;5061362;28;20195;-82
2024/03/06 06:58:22;;;;;;;0.63;0.63;;;4.50;99.90;;;;;;5061081;28;20214;-81
2024/03/06 07:00:49;;;;;;;0.88;0.85;;;4.60;99.90;;;;;;5061009;28;20194;-83
2024/03/06 07:03:16;;;;;;;0.50;0.40;;;4.70;99.90;;;;;;5059176;28;20206;-82
2024/03/06 07:05:43;;;;;;;1.25;1.15;;;4.90;99.90;;;;;;5059672;28;20195;-81
2024/03/06 07:08:12;;;;;;;1.92;1.77;;;5.10;99.90;;;;;;5060162;28;20226;-82
2024/03/06 07:10:39;;;;;;;0.60;0.40;;;5.20;99.90;;;;;;5059382;28;20238;-82
2024/03/06 07:13:07;;;;;;;1.05;1.05;;;5.40;99.90;;;;;;5058712;28;20205;-81
2024/03/06 07:15:34;;;;;;;0.98;0.95;;;5.60;99.90;;;;;;5059765;28;20199;-81
2024/03/06 07:18:00;;;;;;;1.38;0.70;;;5.80;99.90;;;;;;5059589;28;20211;-82
2024/03/06 07:20:28;;;;;;;11.38;6.28;;;5.90;99.90;;;;;;5061970;28;20195;-81
2024/03/06 07:22:55;;;;;;;1.50;1.40;;;6.10;99.90;;;;;;5062081;28;20201;-82
2024/03/06 07:25:22;;;;;;;0.50;0.50;;;6.30;99.90;;;;;;5062833;28;20222;-82
2024/03/06 07:27:48;;;;;;;1.98;1.88;;;6.40;99.90;;;;;;5063092;28;20705;-81
2024/03/06 07:30:17;;;;;;;6.13;3.88;;;6.60;99.90;;;;;;5063802;28;20666;-84
2024/03/06 07:32:44;;;;;;;15.35;5.45;;;6.70;99.90;;;;;;5065119;28;20191;-82
2024/03/06 07:35:12;;;;;;;8.13;4.22;;;6.80;99.90;;;;;;5064651;28;20203;-82
2024/03/06 07:37:38;;;;;;;2.70;2.45;;;6.80;99.90;;;;;;5064475;28;20211;-81
2024/03/06 07:40:06;;;;;;;4.97;4.45;;;6.80;99.90;;;;;;5062271;28;20203;-83
2024/03/06 07:42:34;;;;;;;3.83;3.08;;;6.90;99.90;;;;;;5060901;28;20577;-84
2024/03/06 07:45:00;;;;;;;1.02;1.02;;;7.00;99.90;;;;;;5061449;28;20223;-83
2024/03/06 07:47:28;;;;;;;1.08;1.08;;;7.20;99.90;;;;;;5061563;28;20724;-82
2024/03/06 07:49:55;;;;;;;0.60;0.60;;;7.50;99.90;;;;;;5060205;28;20253;-82
2024/03/06 07:52:22;;;;;;;0.50;0.40;;;7.70;99.90;;;;;;5060184;28;20194;-83
2024/03/06 07:54:49;;;;;;;0.50;0.40;;;7.90;99.90;;;;;;5063431;28;20203;-82
2024/03/06 07:57:16;;;;;;;0.50;0.40;;;8.10;99.90;;;;;;5060875;28;20297;-83
2024/03/06 07:59:43;;;;;;;2.20;2.08;;;8.20;99.90;;;;;;5060943;28;20199;-83
2024/03/06 08:02:09;;;;;;;0.50;0.40;;;8.50;99.90;;;;;;5061099;28;20203;-82
2024/03/06 08:04:37;;;;;;;6.55;2.60;;;8.60;99.90;;;;;;5060332;28;20195;-83
2024/03/06 08:07:04;;;;;;;1.30;1.30;;;9.20;99.90;;;;;;5064162;28;20584;-83
2024/03/06 08:09:31;;;;;;;1.60;1.60;;;9.90;99.90;;;;;;5070670;28;20878;-82
2024/03/06 08:11:58;;;;;;;1.27;1.17;;;10.40;99.90;;;;;;5075750;28;20490;-82
2024/03/06 08:14:25;;;;;;;2.83;1.33;;;10.70;99.90;;;;;;5079511;28;20433;-83
2024/03/06 08:16:52;;;;;;;6.90;6.20;;;10.60;99.90;;;;;;5073492;28;20438;-82
2024/03/06 08:19:20;;;;;;;8.20;5.47;;;10.20;99.90;;;;;;5063447;28;20437;-82
2024/03/06 08:21:48;;;;;;;1.93;1.83;;;9.60;99.90;;;;;;5060298;28;20452;-82
2024/03/06 08:24:17;;;;;;;3.50;3.30;;;9.20;99.90;;;;;;5077732;28;20436;-82
2024/03/06 08:26:43;;;;;;;7.17;4.03;;;8.80;99.90;;;;;;5080606;28;20245;-84
2024/03/06 08:29:10;;;;;;;24.17;7.20;;;8.30;99.90;;;;;;5081149;28;20448;-84
2024/03/06 08:31:39;;;;;;;6.55;2.15;;;7.80;99.90;;;;;;5083491;28;20202;-82
2024/03/06 08:34:07;;;;;;;13.65;3.42;;;7.60;99.90;;;;;;5080547;28;20194;-82
2024/03/06 08:36:34;;;;;;;0.50;0.43;;;7.40;99.90;;;;;;5082419;28;20197;-84
2024/03/06 08:39:02;;;;;;;2.97;2.80;;;7.30;99.90;;;;;;5081981;28;20210;-82
2024/03/06 08:41:29;;;;;;;3.85;3.65;;;7.20;99.90;;;;;;5081856;28;20241;-83
2024/03/06 08:43:55;;;;;;;4.32;3.97;;;7.20;99.90;;;;;;5081085;28;20198;-82
2024/03/06 08:46:21;;;;;;;8.07;5.32;;;7.10;99.90;;;;;;5078742;28;20199;-83
2024/03/06 08:48:48;;;;;;;1.83;1.73;;;7.00;99.90;;;;;;5077226;28;20221;-84
2024/03/06 08:51:14;;;;;;;12.27;3.20;;;7.00;99.90;;;;;;5063565;28;20211;-82
2024/03/06 08:53:41;;;;;;;6.30;5.65;;;7.00;99.90;;;;;;5067853;28;20206;-83
2024/03/06 08:56:09;;;;;;;4.20;3.83;;;6.80;99.90;;;;;;5073566;28;20202;-83
2024/03/06 08:58:36;;;;;;;0.50;0.50;;;6.80;99.90;;;;;;5074590;28;20573;-82
2024/03/06 09:01:03;;;;;;;10.60;8.68;;;6.90;99.90;;;;;;5073026;28;20222;-82
2024/03/06 09:03:29;;;;;;;2.15;1.63;;;6.90;99.90;;;;;;5077273;28;20232;-80
2024/03/06 09:05:56;;;;;;;0.98;0.98;;;6.90;99.90;;;;;;5075543;28;20217;-82
2024/03/06 09:08:23;;;;;;;4.50;2.05;;;7.00;99.90;;;;;;5075403;28;20226;-81
2024/03/06 09:10:50;;;;;;;4.70;4.45;;;7.10;99.90;;;;;;5074696;28;20203;-82
2024/03/06 09:13:18;;;;;;;2.17;2.08;;;7.00;99.90;;;;;;5074449;28;20194;-82
2024/03/06 09:15:45;;;;;;;3.95;3.65;;;7.20;99.90;;;;;;5072041;28;20198;-83
2024/03/06 09:18:12;;;;;;;0.50;0.40;;;7.30;99.90;;;;;;5069501;28;20217;-83
2024/03/06 09:20:38;;;;;;;0.68;0.65;;;7.40;99.90;;;;;;5066303;28;20191;-83
2024/03/06 09:23:05;;;;;;;4.07;3.67;;;7.60;99.90;;;;;;5073556;28;20197;-84
2024/03/06 09:25:32;;;;;;;8.38;6.90;;;7.60;99.90;;;;;;5061309;28;20199;-83
2024/03/06 09:27:59;;;;;;;1.70;1.67;;;7.70;99.90;;;;;;5061961;28;20218;-82
2024/03/06 09:30:29;;;;;;;3.40;3.20;;;7.60;99.90;;;;;;5076009;28;20194;-83
2024/03/06 09:32:56;;;;;;;0.50;0.40;;;7.70;99.90;;;;;;5069003;28;20272;-82
2024/03/06 09:35:23;;;;;;;11.13;7.47;;;8.00;99.90;;;;;;5055703;28;20195;-83
2024/03/06 09:37:49;;;;;;;1.48;1.48;;;7.90;99.90;;;;;;5055204;28;20211;-81
2024/03/06 09:40:23;;;;;;;0.50;0.40;;;7.60;99.90;;;;;;5057008;28;20199;-82
2024/03/06 09:42:51;;;;;;;0.50;0.40;;;7.60;99.90;;;;;;5074333;28;20201;-83
2024/03/06 09:45:19;;;;;;;0.75;0.75;;;7.80;99.90;;;;;;5073386;28;20195;-85
2024/03/06 09:47:52;;;;;;;2.95;2.85;;;8.10;99.90;;;;;;5069612;28;20219;-83
2024/03/06 09:50:24;;;;;;;0.50;0.40;;;8.40;99.90;;;;;;5064645;28;20667;-84
2024/03/06 09:52:52;;;;;;;0.50;0.40;;;8.60;99.90;;;;;;5070443;28;20574;-84
2024/03/06 09:55:19;;;;;;;0.95;0.95;;;8.90;99.90;;;;;;5072631;28;20795;-83
2024/03/06 09:57:46;;;;;;;0.50;0.50;;;9.00;99.90;;;;;;5079112;28;20276;-83
2024/03/06 10:00:13;;;;;;;3.33;1.33;;;9.10;99.90;;;;;;5079883;28;20464;-83
2024/03/06 10:02:51;;;;;;;2.53;2.43;;;9.10;99.90;;;;;;5082001;28;20447;-86
2024/03/06 10:05:25;;;;;;;1.35;1.02;;;9.00;99.90;;;;;;5079772;28;20441;-85
2024/03/06 10:07:52;;;;;;;2.80;2.17;;;9.20;99.90;;;;;;5077526;28;20219;-85
2024/03/06 10:10:20;;;;;;;5.10;3.03;;;9.30;99.90;;;;;;5078184;28;20460;-84
2024/03/06 10:12:48;;;;;;;5.70;1.07;;;9.10;99.90;;;;;;5078965;28;20433;-85
2024/03/06 10:15:15;;;;;;;1.35;1.25;;;9.10;99.90;;;;;;5081901;28;20437;-84
2024/03/06 10:17:42;;;;;;;0.60;0.40;;;8.90;99.90;;;;;;5082423;28;20221;-83
2024/03/06 10:20:21;;;;;;;6.85;6.25;;;9.30;99.90;;;;;;5082207;28;20440;-85
2024/03/06 10:22:50;;;;;;;0.63;0.63;;;9.50;99.90;;;;;;5080830;28;20198;-83
2024/03/06 10:25:19;;;;;;;3.30;2.53;;;9.60;99.90;;;;;;5079794;28;20440;-83
2024/03/06 10:27:46;;;;;;;0.60;0.60;;;9.80;99.90;;;;;;5080415;28;20473;-83
2024/03/06 10:30:15;;;;;;;0.50;0.40;;;10.10;99.90;;;;;;5079107;28;20440;-84
2024/03/06 10:32:43;;;;;;;4.67;2.87;;;10.30;99.90;;;;;;5079500;28;20437;-82
2024/03/06 10:35:22;;;;;;;1.33;0.80;;;10.70;99.90;;;;;;5081294;28;20447;-82
2024/03/06 10:37:49;;;;;;;2.30;1.37;;;10.90;99.90;;;;;;5080511;28;20502;-84
2024/03/06 10:40:18;;;;;;;1.17;1.07;;;11.00;99.90;;;;;;5081048;28;20436;-83
2024/03/06 10:42:46;;;;;;;1.90;1.80;;;11.10;99.90;;;;;;5079935;28;20441;-84
2024/03/06 10:45:16;;;;;;;0.50;0.40;;;11.20;99.90;;;;;;5079373;28;20432;-83
2024/03/06 10:47:48;;;;;;;4.93;1.57;;;11.50;99.90;;;;;;5080810;28;20483;-83
2024/03/06 10:50:16;;;;;;;0.60;0.60;;;11.90;99.90;;;;;;5080186;28;20463;-82
2024/03/06 10:52:48;;;;;;;0.50;0.40;;;12.20;99.90;;;;;;5080992;28;20425;-83
2024/03/06 10:55:16;;;;;;;1.17;1.17;;;12.50;99.90;;;;;;5080223;28;20448;-84
2024/03/06 10:57:43;;;;;;;4.37;3.60;;;13.10;99.90;;;;;;5078631;28;20460;-85
2024/03/06 11:00:15;;;;;;;2.13;2.00;;;14.10;99.90;;;;;;5078914;28;20433;-84
2024/03/06 11:02:42;;;;;;;1.33;1.23;;;15.10;99.90;;;;;;5079992;28;20462;-81
2024/03/06 11:05:09;;;;;;;2.97;2.83;;;16.30;99.90;;;;;;5068161;28;20464;-85
2024/03/06 11:07:37;;;;;;;2.60;1.73;;;17.50;99.90;;;;;;5081027;28;20483;-81
2024/03/06 11:10:07;;;;;;;4.40;2.87;;;18.60;99.90;;;;;;5074708;28;20540;-85
2024/03/06 11:12:36;;;;;;;1.10;1.03;;;19.10;99.90;;;;;;5073109;28;20433;-80
2024/03/06 11:15:10;;;;;;;0.53;0.50;;;19.40;99.90;;;;;;5080517;28;20445;-81
2024/03/06 11:17:37;;;;;;;0.67;0.67;;;20.00;99.90;;;;;;5072882;28;20908;-82
2024/03/06 11:20:16;;;;;;;0.50;0.50;;;20.10;99.90;;;;;;5080958;28;20431;-81
2024/03/06 11:23:11;;;;;;;1.03;1.03;;;19.70;99.90;;;;;;5066197;28;20433;-84
2024/03/06 11:26:05;;;;;;;2.03;1.83;;;19.40;99.90;;;;;;5071407;28;20438;-83
2024/03/06 11:28:34;;;;;;;3.83;2.93;;;19.90;99.90;;;;;;5080259;28;20908;-82
2024/03/06 11:31:03;;;;;;;1.53;1.43;;;20.40;99.90;;;;;;5080109;28;20439;-82
2024/03/06 11:33:35;;;;;;;4.73;2.40;;;20.50;99.90;;;;;;5061840;28;20504;-82
2024/03/06 11:36:22;;;;;;;2.73;1.30;;;20.80;98.60;;;;;;5060291;28;20463;-81
2024/03/06 11:38:53;;;;;;;2.63;1.63;;;21.10;96.90;;;;;;5074421;28;20542;-82
2024/03/06 11:41:23;;;;;;;1.00;0.70;;;21.90;98.90;;;;;;5073099;28;20444;-82
2024/03/06 11:43:52;;;;;;;2.50;2.17;;;22.20;97.00;;;;;;5072506;28;20436;-83
2024/03/06 11:46:20;;;;;;;0.60;0.60;;;22.70;97.70;;;;;;5079678;28;20528;-82
2024/03/06 11:48:54;;;;;;;2.87;2.67;;;23.10;96.20;;;;;;5081016;28;21009;-82
2024/03/06 11:51:22;;;;;;;6.73;1.97;;;23.10;92.90;;;;;;5081954;28;20443;-82
2024/03/06 11:53:50;;;;;;;0.80;0.80;;;22.90;91.80;;;;;;5081014;28;20793;-82
2024/03/06 11:56:19;;;;;;;3.77;2.77;;;23.00;92.90;;;;;;5081960;28;20437;-82
2024/03/06 11:58:47;;;;;;;3.23;3.03;;;23.00;91.10;;;;;;5073739;28;20456;-81
2024/03/06 12:01:14;;;;;;;2.30;1.50;;;22.90;90.00;;;;;;5082493;28;20449;-82
2024/03/06 12:03:42;;;;;;;3.03;0.90;;;22.90;89.00;;;;;;5081473;28;20455;-80
2024/03/06 12:06:08;;;;;;;1.37;1.17;;;22.50;88.40;;;;;;5082238;28;20440;-81
2024/03/06 12:08:36;;;;;;;0.60;0.60;;;21.80;90.50;;;;;;5082356;28;20491;-82
2024/03/06 12:11:04;;;;;;;0.50;0.40;;;21.70;91.00;;;;;;5085394;28;20436;-82
2024/03/06 12:13:32;;;;;;;2.40;2.30;;;21.90;92.00;;;;;;5076970;28;20952;-80
2024/03/06 12:16:05;;;;;;;0.83;0.83;;;22.20;90.20;;;;;;5085519;28;20425;-81
2024/03/06 12:18:33;;;;;;;0.90;0.60;;;22.70;86.10;;;;;;5084987;28;20460;-83
2024/03/06 12:21:03;;;;;;;2.30;1.13;;;22.50;84.70;;;;;;5080849;28;20443;-81
2024/03/06 12:23:30;;;;;;;0.50;0.40;;;22.20;83.80;;;;;;5081259;28;20439;-84
2024/03/06 12:26:07;;;;;;;0.80;0.70;;;21.40;81.70;;;;;;5083497;28;20442;-82
2024/03/06 12:28:37;;;;;;;0.50;0.40;;;20.10;82.70;;;;;;5082001;28;20483;-83
2024/03/06 12:31:07;;;;;;;0.50;0.37;;;18.90;86.10;;;;;;5082782;28;20448;-83
2024/03/06 12:33:34;;;;;;;0.67;0.67;;;18.10;88.90;;;;;;5084097;28;20436;-83
2024/03/06 12:36:14;;;;;;;0.70;0.70;;;17.20;91.90;;;;;;5084833;28;20463;-86
2024/03/06 12:38:41;;;;;;;0.50;0.40;;;16.40;90.70;;;;;;5082251;28;20444;-86
2024/03/06 12:41:08;;;;;;;0.50;0.40;;;15.60;92.00;;;;;;5082510;28;20463;-83
2024/03/06 12:43:35;;;;;;;0.50;0.40;;;15.10;91.80;;;;;;5078810;28;20962;-84
2024/03/06 12:46:05;;;;;;;0.63;0.63;;;14.70;97.40;;;;;;5078902;28;20465;-83
2024/03/06 12:48:32;;;;;;;0.70;0.70;;;14.30;99.90;;;;;;5081382;28;20544;-86
2024/03/06 12:51:04;;;;;;;0.50;0.37;;;14.50;99.90;;;;;;5082825;28;20509;-85
2024/03/06 12:53:31;;;;;;;1.97;0.70;;;14.90;99.90;;;;;;5081295;28;20467;-84
2024/03/06 12:55:58;;;;;;;1.03;0.90;;;15.50;99.90;;;;;;5077889;28;20996;-86
2024/03/06 12:58:25;;;;;;;0.57;0.50;;;16.20;99.90;;;;;;5078979;28;20813;-83
2024/03/06 13:00:54;;;;;;;2.80;2.70;;;17.00;99.90;;;;;;5079966;28;20437;-83